Radnor, Ohio
Current Conditions -  °F | °C
As of 12:56 PM on Friday 31 Oct 2014 (Local Time) from KDLZ Reporting Station
Drizzle Drizzle  
Wind Chill: 39°   Ceiling: 2600
Heat Index: 43°   Visibility: 7mi
Dew Point: 36°   Wind: 7mph
Humidity: 76%   Direction: 260°W
Pressure: 29.9"   Gusts: NA
Location:  40.38°N, 83.15°W
Report Text: KDLZ 311656Z AUTO 26006KT 7SM DZ SCT020 OVC026 06/02 A2990 RMK AO2
Loading
Personal Weather Stations






























Interactive Weather Map
Tropical Storm Tracking
New forecast layout! Learn more

10-Day Weather Forecast

Advertisements
Track Severe Weather on mobile